Cassville, Missouri
Current Conditions -  °F | °C
As of 5:55 AM on Thursday 23 Oct 2014 (Local Time) from KHFJ Reporting Station
Scattered Clouds Scattered Clouds  
Wind Chill: 54°   Ceiling: Unl
Heat Index: 54°   Visibility: 10mi
Dew Point: 50°   Wind: 6mph
Humidity: 88%   Direction: 150°SSE
Pressure: 30.15"   Gusts: NA
Location:  36.68°N, 93.87°W
Report Text: KHFJ 231055Z AUTO 15005KT 10SM SCT050 12/10 A3015 RMK AO2
Loading
Personal Weather Stations






























Interactive Weather Map
Tropical Storm Tracking
New forecast layout! Learn more

10-Day Weather Forecast

Advertisements
Track Severe Weather on mobile